Time;durP1;ratioP1;P1;durP2;ratioP2;P2;SDS_P1;SDS_P2;PMS_P1;PMS_P2;Temp;Humidity;BMP_temperature;BMP_pressure;BME280_temperature;BME280_humidity;BME280_pressure;Samples;Min_cycle;Max_cycle;Signal;HPM_P1;HPM_P2
2021/01/11 00:00:22;;;;;;;184.80;79.60;;;;;;;-0.82;64.90;99609.70;119798;1151;104375;-70
2021/01/11 00:03:01;;;;;;;201.23;86.30;;;;;;;-0.81;64.61;99610.55;119901;1151;104427;-69
2021/01/11 00:05:28;;;;;;;187.30;80.67;;;;;;;-0.81;65.12;99606.17;119953;1151;104527;-69
2021/01/11 00:07:55;;;;;;;183.03;86.13;;;;;;;-0.81;65.59;99594.88;120065;1151;104460;-67
2021/01/11 00:10:22;;;;;;;180.73;79.17;;;;;;;-0.80;64.56;99599.21;119872;1151;104452;-71
2021/01/11 00:12:49;;;;;;;158.13;72.60;;;;;;;-0.81;65.23;99594.88;119984;1151;104396;-70
2021/01/11 00:15:16;;;;;;;146.03;68.60;;;;;;;-0.82;64.76;99596.64;120024;1151;104405;-70
2021/01/11 00:17:43;;;;;;;147.20;69.00;;;;;;;-0.84;65.33;99590.58;119922;1151;104926;-71
2021/01/11 00:20:11;;;;;;;136.17;64.17;;;;;;;-0.84;65.08;99589.70;119996;1151;104460;-70
2021/01/11 00:22:43;;;;;;;137.50;62.47;;;;;;;-0.84;65.61;99587.97;119948;1151;104352;-69
2021/01/11 00:25:12;;;;;;;126.63;61.23;;;;;;;-0.85;64.66;99583.63;119929;1151;104380;-70
2021/01/11 00:27:41;;;;;;;126.90;56.70;;;;;;;-0.82;64.67;99585.31;121364;1151;103556;-69
2021/01/11 00:30:10;;;;;;;125.67;57.80;;;;;;;-0.82;65.29;99580.97;119881;1153;104397;-70
2021/01/11 00:32:39;;;;;;;133.23;61.77;;;;;;;-0.79;64.54;99582.65;120794;1152;104456;-69
2021/01/11 00:35:07;;;;;;;146.07;63.97;;;;;;;-0.76;64.68;99585.20;120204;1151;104438;-70
2021/01/11 00:37:35;;;;;;;143.43;67.17;;;;;;;-0.75;64.81;99577.33;119995;1151;104857;-70
2021/01/11 00:40:06;;;;;;;162.80;77.23;;;;;;;-0.72;64.83;99570.33;119841;1153;104691;-69
2021/01/11 00:42:37;;;;;;;169.77;76.53;;;;;;;-0.69;64.60;99562.44;119782;1154;104438;-69
2021/01/11 00:45:08;;;;;;;168.40;74.50;;;;;;;-0.68;65.38;99553.70;119926;1152;104400;-68
2021/01/11 00:47:40;;;;;;;155.27;68.60;;;;;;;-0.67;65.13;99558.92;119799;1153;104580;-70
2021/01/11 00:50:09;;;;;;;154.03;70.80;;;;;;;-0.68;65.21;99557.20;119974;1151;104393;-70
2021/01/11 00:52:36;;;;;;;144.03;69.67;;;;;;;-0.68;64.66;99557.20;119882;1151;104454;-70
2021/01/11 00:55:06;;;;;;;148.63;68.30;;;;;;;-0.68;64.87;99551.97;119867;1151;104355;-69
2021/01/11 00:57:36;;;;;;;141.83;66.27;;;;;;;-0.72;65.12;99546.81;121758;1151;102262;-69
2021/01/11 01:00:10;;;;;;;160.67;68.27;;;;;;;-0.74;64.89;99554.69;120183;1151;104359;-68
2021/01/11 01:02:37;;;;;;;145.75;65.35;;;;;;;-0.76;65.27;99562.55;120069;1151;104452;-71
2021/01/11 01:05:07;;;;;;;137.57;64.30;;;;;;;-0.75;64.92;99547.75;120008;1149;104468;-71
2021/01/11 01:07:39;;;;;;;140.90;64.77;;;;;;;-0.72;64.69;99562.48;120122;1151;104349;-70
2021/01/11 01:10:07;;;;;;;136.43;58.47;;;;;;;-0.72;65.06;99560.75;119902;1151;104452;-69
2021/01/11 01:12:34;;;;;;;133.17;62.20;;;;;;;-0.70;65.96;99552.88;120840;1150;104387;-70
2021/01/11 01:15:05;;;;;;;134.27;59.67;;;;;;;-0.69;65.47;99550.25;120383;1151;104452;-70
2021/01/11 01:17:37;;;;;;;131.03;58.23;;;;;;;-0.66;65.37;99546.70;119899;1151;104387;-69
2021/01/11 01:20:15;;;;;;;121.33;57.30;;;;;;;-0.62;65.38;99541.41;119908;1151;104387;-70
2021/01/11 01:22:46;;;;;;;114.57;51.40;;;;;;;-0.61;65.60;99532.65;119900;1151;104451;-69
2021/01/11 01:25:14;;;;;;;118.77;55.03;;;;;;;-0.59;65.47;99530.02;120476;1151;104356;-69
2021/01/11 01:27:42;;;;;;;108.20;52.00;;;;;;;-0.60;64.87;99533.52;121124;1150;102223;-70
2021/01/11 01:30:11;;;;;;;105.57;51.53;;;;;;;-0.61;65.33;99527.42;119955;1151;104547;-71
2021/01/11 01:32:39;;;;;;;101.07;47.73;;;;;;;-0.60;65.31;99525.69;119838;1151;104464;-68
2021/01/11 01:35:11;;;;;;;108.47;51.27;;;;;;;-0.57;64.92;99524.75;119889;1151;104487;-68
2021/01/11 01:37:40;;;;;;;108.27;53.23;;;;;;;-0.57;65.86;99522.14;120967;1151;101997;-70
2021/01/11 01:40:07;;;;;;;109.63;50.47;;;;;;;-0.54;65.61;99520.34;120195;1151;104455;-69
2021/01/11 01:42:35;;;;;;;105.50;49.93;;;;;;;-0.52;65.49;99520.30;120057;1151;104697;-69
2021/01/11 01:45:04;;;;;;;101.13;47.43;;;;;;;-0.55;65.42;99522.97;119956;1151;104359;-71
2021/01/11 01:47:33;;;;;;;99.60;46.67;;;;;;;-0.56;65.07;99529.97;119926;1151;104411;-68
2021/01/11 01:50:04;;;;;;;91.10;43.57;;;;;;;-0.58;65.58;99529.13;120487;1150;104377;-70
2021/01/11 01:52:36;;;;;;;95.67;45.03;;;;;;;-0.58;65.07;99534.36;119874;1151;104452;-69
2021/01/11 01:55:09;;;;;;;86.77;40.00;;;;;;;-0.67;65.25;99527.57;119851;1151;104483;-69
2021/01/11 01:57:36;;;;;;;95.83;45.50;;;;;;;-0.65;65.71;99528.40;119889;1151;104509;-72
2021/01/11 02:00:06;;;;;;;95.00;46.00;;;;;;;-0.63;65.50;99521.39;119869;1152;104500;-71
2021/01/11 02:02:33;;;;;;;99.67;48.10;;;;;;;-0.60;65.96;99518.69;119967;1151;104458;-70
2021/01/11 02:05:00;;;;;;;98.10;46.75;;;;;;;-0.57;65.51;99524.75;119802;1152;104484;-71
2021/01/11 02:07:41;;;;;;;101.97;46.77;;;;;;;-0.54;65.56;99522.95;120091;1151;104537;-69
2021/01/11 02:10:17;;;;;;;97.20;45.77;;;;;;;-0.53;65.86;99524.68;119772;1153;104478;-70
2021/01/11 02:13:00;;;;;;;88.50;43.77;;;;;;;-0.50;66.08;99526.36;119806;1154;104351;-70
2021/01/11 02:15:49;;;;;;;93.63;44.57;;;;;;;-0.49;66.08;99526.34;119880;1153;104458;-69
2021/01/11 02:18:27;;;;;;;93.97;42.63;;;;;;;-0.47;65.92;99534.14;119843;1151;104387;-71
2021/01/11 02:21:25;;;;;;;98.83;45.93;;;;;;;-0.46;65.93;99525.41;119932;1153;104376;-69
2021/01/11 02:24:04;;;;;;;74.97;35.57;;;;;;;-0.57;65.97;99527.36;119893;1151;104348;-70
2021/01/11 02:26:53;;;;;;;79.03;36.70;;;;;;;-0.69;65.59;99520.63;119932;1154;104378;-70
2021/01/11 02:29:29;;;;;;;71.47;31.83;;;;;;;-0.72;65.24;99528.52;120002;1151;104452;-68
2021/01/11 02:31:59;;;;;;;66.20;31.60;;;;;;;-0.83;64.69;99518.29;120076;1151;104363;-69
2021/01/11 02:34:27;;;;;;;61.83;31.13;;;;;;;-0.95;65.13;99515.01;119985;1151;104569;-70
2021/01/11 02:36:55;;;;;;;73.57;37.30;;;;;;;-1.00;65.24;99516.84;119862;1151;104375;-70
2021/01/11 02:39:22;;;;;;;70.43;31.00;;;;;;;-0.97;66.11;99515.94;119849;1153;104448;-69
2021/01/11 02:41:49;;;;;;;66.50;30.60;;;;;;;-0.93;65.66;99513.23;119848;1153;104426;-70
2021/01/11 02:44:16;;;;;;;63.53;27.17;;;;;;;-0.94;65.41;99508.89;119970;1151;105023;-70
2021/01/11 02:46:43;;;;;;;63.77;29.30;;;;;;;-0.91;65.79;99514.06;119931;1151;104475;-69
2021/01/11 02:49:23;;;;;;;65.37;30.03;;;;;;;-0.90;65.52;99513.17;119887;1151;104508;-68
2021/01/11 02:52:04;;;;;;;63.07;30.97;;;;;;;-0.85;65.41;99513.11;120059;1151;104382;-71
2021/01/11 02:54:38;;;;;;;66.00;30.37;;;;;;;-0.83;65.87;99513.94;120041;1154;104566;-70
2021/01/11 02:57:19;;;;;;;56.53;28.35;;;;;;;-0.82;65.75;99520.01;120118;1152;104454;-70
2021/01/11 02:59:52;;;;;;;61.57;28.80;;;;;;;-0.81;65.12;99516.52;120120;1151;104978;-70
2021/01/11 03:02:23;;;;;;;61.87;28.60;;;;;;;-0.82;65.36;99515.66;120073;1152;104357;-67
2021/01/11 03:04:51;;;;;;;60.00;27.50;;;;;;;-0.80;65.74;99513.85;119917;1152;104386;-69
2021/01/11 03:07:18;;;;;;;54.40;26.10;;;;;;;-0.78;65.56;99513.84;119890;1153;104375;-69
2021/01/11 03:09:47;;;;;;;55.48;24.70;;;;;;;-0.79;66.07;99514.73;119890;1153;104372;-69
2021/01/11 03:12:14;;;;;;;52.67;22.57;;;;;;;-0.81;65.21;99517.36;119831;1151;104354;-69
2021/01/11 03:14:42;;;;;;;56.55;26.15;;;;;;;-0.89;65.24;99514.05;119786;1151;104457;-68
2021/01/11 03:17:09;;;;;;;64.80;30.43;;;;;;;-0.99;65.02;99512.49;119806;1151;104465;-66
2021/01/11 03:19:36;;;;;;;69.15;31.90;;;;;;;-1.02;66.30;99516.03;119895;1151;104379;-69
2021/01/11 03:22:04;;;;;;;69.10;32.33;;;;;;;-0.99;65.87;99502.05;119886;1153;104401;-69
2021/01/11 03:24:31;;;;;;;66.73;30.30;;;;;;;-0.92;65.63;99506.27;120883;1151;104353;-69
2021/01/11 03:26:59;;;;;;;70.10;31.53;;;;;;;-0.87;65.82;99509.66;119961;1151;104394;-69
2021/01/11 03:29:27;;;;;;;47.47;22.43;;;;;;;-0.83;65.70;99502.62;119872;1151;104853;-70
2021/01/11 03:31:54;;;;;;;55.45;23.85;;;;;;;-0.86;65.41;99514.00;119840;1152;104464;-69
2021/01/11 03:34:22;;;;;;;48.93;22.37;;;;;;;-0.83;65.40;99506.11;119926;1151;104354;-69
2021/01/11 03:36:49;;;;;;;47.62;22.40;;;;;;;-0.85;66.02;99501.78;119919;1151;104429;-69
2021/01/11 03:39:16;;;;;;;40.75;17.05;;;;;;;-0.85;65.65;99507.01;119922;1151;104482;-69
2021/01/11 03:41:46;;;;;;;39.60;17.93;;;;;;;-0.92;65.67;99501.89;119894;1151;104474;-68
2021/01/11 03:44:13;;;;;;;37.55;15.75;;;;;;;-0.94;66.05;99505.44;119883;1151;104452;-70
2021/01/11 03:46:41;;;;;;;35.23;14.67;;;;;;;-0.89;65.69;99500.99;119959;1151;104368;-70
2021/01/11 03:49:08;;;;;;;30.27;13.13;;;;;;;-0.84;65.72;99500.89;121006;1151;104505;-69
2021/01/11 03:51:35;;;;;;;26.63;11.40;;;;;;;-0.86;65.39;99503.55;119935;1151;104867;-69
2021/01/11 03:54:03;;;;;;;28.13;12.20;;;;;;;-0.83;65.86;99507.84;120039;1151;104453;-70
2021/01/11 03:56:30;;;;;;;30.50;13.85;;;;;;;-0.78;65.85;99509.47;120033;1153;104460;-69
2021/01/11 03:58:57;;;;;;;27.80;11.90;;;;;;;-0.73;65.28;99506.78;120099;1153;104380;-70
2021/01/11 04:01:27;;;;;;;28.17;12.00;;;;;;;-0.77;65.18;99505.96;119971;1153;104554;-69
2021/01/11 04:03:55;;;;;;;29.77;12.80;;;;;;;-0.78;65.52;99503.39;120012;1153;104457;-68
2021/01/11 04:06:22;;;;;;;29.30;12.70;;;;;;;-0.81;65.80;99503.45;120008;1153;104528;-68
2021/01/11 04:08:49;;;;;;;35.73;14.43;;;;;;;-0.85;66.05;99502.66;120062;1153;104353;-68
2021/01/11 04:11:20;;;;;;;37.07;16.30;;;;;;;-0.84;65.25;99501.77;120036;1153;104355;-70
2021/01/11 04:13:48;;;;;;;33.00;15.37;;;;;;;-0.82;65.42;99504.34;120088;1154;104467;-70
2021/01/11 04:16:16;;;;;;;37.17;17.53;;;;;;;-0.81;65.53;99500.84;119997;1152;104359;-70
2021/01/11 04:18:46;;;;;;;36.40;16.77;;;;;;;-0.78;65.33;99501.62;119983;1152;104430;-70
2021/01/11 04:21:13;;;;;;;36.93;17.00;;;;;;;-0.72;65.34;99505.02;119947;1151;104484;-70
2021/01/11 04:23:40;;;;;;;39.50;17.60;;;;;;;-0.68;65.68;99499.72;119859;1153;104462;-69
2021/01/11 04:26:09;;;;;;;36.83;17.73;;;;;;;-0.60;65.37;99497.79;119873;1153;104358;-69
2021/01/11 04:28:37;;;;;;;37.17;16.47;;;;;;;-0.55;66.06;99502.94;120246;1153;104352;-69
2021/01/11 04:31:05;;;;;;;38.97;18.00;;;;;;;-0.52;65.73;99500.27;119886;1153;104393;-70
2021/01/11 04:33:33;;;;;;;33.37;16.53;;;;;;;-0.53;65.13;99489.83;119854;1153;104480;-70
2021/01/11 04:36:00;;;;;;;32.67;14.10;;;;;;;-0.52;65.92;99491.55;120028;1153;104392;-67
2021/01/11 04:38:27;;;;;;;30.47;13.07;;;;;;;-0.54;65.41;99501.17;121909;1151;103171;-70
2021/01/11 04:41:05;;;;;;;27.87;12.13;;;;;;;-0.56;65.32;99497.73;120010;1153;104492;-69
2021/01/11 04:43:35;;;;;;;26.20;11.17;;;;;;;-0.63;64.96;99499.61;120056;1152;104234;-71
2021/01/11 04:46:02;;;;;;;29.03;12.20;;;;;;;-0.67;65.48;99497.95;119953;1153;104432;-69
2021/01/11 04:48:31;;;;;;;27.73;12.10;;;;;;;-0.70;64.98;99504.11;119954;1153;104457;-70
2021/01/11 04:51:00;;;;;;;29.67;12.47;;;;;;;-0.76;65.22;99502.46;119911;1152;104491;-68
2021/01/11 04:53:27;;;;;;;25.35;10.95;;;;;;;-0.85;65.08;99505.27;120869;1152;104934;-69
2021/01/11 04:56:00;;;;;;;28.73;12.50;;;;;;;-0.93;65.21;99504.55;119934;1153;104418;-70
2021/01/11 04:58:46;;;;;;;27.43;11.30;;;;;;;-0.93;65.73;99499.33;119940;1153;104484;-68
2021/01/11 05:01:14;;;;;;;29.47;12.40;;;;;;;-0.95;65.27;99499.34;119965;1153;104420;-69
2021/01/11 05:03:41;;;;;;;26.13;10.90;;;;;;;-0.96;65.03;99499.38;119916;1154;104366;-69
2021/01/11 05:06:08;;;;;;;27.20;11.13;;;;;;;-0.99;65.49;99502.89;119940;1153;104969;-68
2021/01/11 05:08:35;;;;;;;24.93;10.60;;;;;;;-1.01;65.06;99502.06;119763;1153;104479;-70
2021/01/11 05:11:03;;;;;;;28.10;12.30;;;;;;;-1.00;65.43;99500.33;119876;1153;104444;-69
2021/01/11 05:13:30;;;;;;;31.80;12.80;;;;;;;-1.01;65.17;99498.60;119857;1153;104460;-67
2021/01/11 05:16:10;;;;;;;31.23;13.07;;;;;;;-1.00;65.75;99497.71;119916;1153;104484;-68
2021/01/11 05:18:37;;;;;;;31.73;12.73;;;;;;;-0.96;65.89;99494.16;120039;1153;104372;-68
2021/01/11 05:21:05;;;;;;;30.90;13.07;;;;;;;-0.90;65.43;99501.88;120046;1151;104381;-69
2021/01/11 05:23:38;;;;;;;30.00;13.20;;;;;;;-0.83;65.56;99495.66;119996;1153;104439;-70
2021/01/11 05:26:15;;;;;;;31.62;14.35;;;;;;;-0.76;66.03;99502.46;119993;1152;104391;-67
2021/01/11 05:28:42;;;;;;;28.97;12.67;;;;;;;-0.70;65.15;99500.63;120047;1153;104457;-68
2021/01/11 05:31:09;;;;;;;31.43;14.17;;;;;;;-0.71;65.06;99502.39;119985;1153;104403;-71
2021/01/11 05:33:52;;;;;;;29.17;13.27;;;;;;;-0.70;65.46;99503.23;120024;1153;104359;-68
2021/01/11 05:36:23;;;;;;;30.57;13.80;;;;;;;-0.67;65.70;99508.41;120055;1153;104378;-68
2021/01/11 05:38:51;;;;;;;29.45;12.10;;;;;;;-0.67;64.87;99506.66;120066;1151;104357;-70
2021/01/11 05:41:20;;;;;;;32.70;13.50;;;;;;;-0.68;65.83;99507.55;120043;1151;104358;-69
2021/01/11 05:44:13;;;;;;;30.73;12.43;;;;;;;-0.62;65.00;99510.05;119968;1154;104921;-69
2021/01/11 05:46:44;;;;;;;31.43;13.57;;;;;;;-0.56;65.20;99508.18;120022;1154;104458;-71
2021/01/11 05:49:14;;;;;;;28.30;13.23;;;;;;;-0.50;65.75;99508.06;119998;1154;104454;-68
2021/01/11 05:51:41;;;;;;;27.70;10.93;;;;;;;-0.46;65.79;99509.73;120034;1152;104458;-70
2021/01/11 05:54:26;;;;;;;29.17;12.17;;;;;;;-0.52;65.21;99515.95;120032;1153;104516;-70
2021/01/11 05:56:55;;;;;;;28.90;12.53;;;;;;;-0.52;65.08;99512.45;119997;1152;104858;-72
2021/01/11 05:59:24;;;;;;;28.37;12.30;;;;;;;-0.52;64.97;99515.95;120034;1153;104457;-71
2021/01/11 06:01:59;;;;;;;29.43;12.50;;;;;;;-0.52;64.89;99513.33;120001;1152;104390;-71
2021/01/11 06:04:28;;;;;;;27.80;11.83;;;;;;;-0.49;65.35;99510.66;120007;1153;104444;-71
2021/01/11 06:06:56;;;;;;;30.63;12.10;;;;;;;-0.43;65.47;99517.51;120089;1153;104485;-69
2021/01/11 06:09:24;;;;;;;27.60;12.20;;;;;;;-0.38;65.20;99517.40;120036;1152;104415;-71
2021/01/11 06:11:52;;;;;;;25.53;11.97;;;;;;;-0.35;65.35;99512.98;120052;1153;104351;-70
2021/01/11 06:14:22;;;;;;;27.30;11.30;;;;;;;-0.31;65.54;99517.27;120024;1153;104410;-71
2021/01/11 06:16:50;;;;;;;28.75;11.80;;;;;;;-0.37;65.26;99512.16;120081;1151;104423;-69
2021/01/11 06:19:17;;;;;;;30.13;12.83;;;;;;;-0.37;65.37;99508.66;120053;1151;104491;-71
2021/01/11 06:21:53;;;;;;;30.93;13.60;;;;;;;-0.35;64.65;99512.98;120043;1151;104426;-70
2021/01/11 06:24:20;;;;;;;32.17;13.33;;;;;;;-0.31;65.77;99519.00;120041;1153;104354;-70
2021/01/11 06:26:47;;;;;;;31.53;14.13;;;;;;;-0.25;65.76;99516.27;120041;1153;104426;-71
2021/01/11 06:29:33;;;;;;;34.20;13.53;;;;;;;-0.21;65.54;99519.69;120076;1153;104364;-71
2021/01/11 06:32:22;;;;;;;34.10;14.93;;;;;;;-0.19;65.79;99516.13;120023;1151;104505;-70
2021/01/11 06:34:55;;;;;;;33.47;15.23;;;;;;;-0.16;65.51;99523.91;119971;1153;104390;-70
2021/01/11 06:37:26;;;;;;;32.87;14.07;;;;;;;-0.12;65.37;99527.31;120053;1151;104390;-71
2021/01/11 06:39:56;;;;;;;32.33;13.77;;;;;;;-0.11;65.19;99522.95;120057;1153;104494;-70
2021/01/11 06:42:24;;;;;;;31.63;12.73;;;;;;;-0.10;65.14;99520.30;120033;1153;104358;-70
2021/01/11 06:44:52;;;;;;;30.07;13.73;;;;;;;-0.07;65.03;99522.84;120073;1153;104978;-69
2021/01/11 06:47:28;;;;;;;30.77;13.27;;;;;;;-0.04;65.23;99524.55;120083;1151;104462;-71
2021/01/11 06:50:08;;;;;;;30.47;13.00;;;;;;;-0.02;65.02;99520.15;120066;1151;104502;-71
2021/01/11 06:52:38;;;;;;;28.57;12.20;;;;;;;-0.05;65.19;99517.59;120060;1151;104486;-71
2021/01/11 06:55:13;;;;;;;27.53;11.27;;;;;;;-0.12;65.26;99516.84;120108;1151;104433;-70
2021/01/11 06:57:51;;;;;;;26.33;10.87;;;;;;;-0.19;65.45;99516.13;120049;1151;104464;-71
2021/01/11 07:00:19;;;;;;;25.90;11.00;;;;;;;-0.27;65.19;99520.66;120029;1151;104414;-72
2021/01/11 07:02:46;;;;;;;27.40;11.47;;;;;;;-0.29;65.15;99530.28;120087;1152;104444;-67
2021/01/11 07:05:33;;;;;;;29.80;13.50;;;;;;;-0.33;65.46;99532.12;120034;1153;104453;-69
2021/01/11 07:08:18;;;;;;;28.57;11.53;;;;;;;-0.37;64.83;99530.45;120052;1153;104430;-69
2021/01/11 07:10:48;;;;;;;26.43;11.30;;;;;;;-0.42;65.04;99527.07;120032;1153;104504;-72
2021/01/11 07:13:18;;;;;;;31.23;14.33;;;;;;;-0.43;64.87;99530.58;120027;1151;104451;-70
2021/01/11 07:15:51;;;;;;;30.10;13.63;;;;;;;-0.42;65.08;99521.84;120054;1151;104426;-72
2021/01/11 07:18:37;;;;;;;31.80;14.07;;;;;;;-0.36;65.63;99523.45;120029;1151;104495;-71
2021/01/11 07:21:23;;;;;;;29.20;13.43;;;;;;;-0.29;64.97;99521.59;120062;1151;104394;-70
2021/01/11 07:23:52;;;;;;;27.37;14.25;;;;;;;-0.27;65.56;99519.81;120080;1153;104429;-70
2021/01/11 07:26:22;;;;;;;30.80;13.00;;;;;;;-0.25;65.26;99523.26;120111;1153;104361;-69
2021/01/11 07:28:52;;;;;;;27.70;11.30;;;;;;;-0.20;65.64;99523.99;120073;1154;104433;-71
2021/01/11 07:31:26;;;;;;;28.20;11.55;;;;;;;-0.19;65.33;99517.87;120015;1154;104860;-70
2021/01/11 07:34:01;;;;;;;24.33;10.87;;;;;;;-0.27;65.22;99518.05;120058;1153;105014;-70
2021/01/11 07:36:32;;;;;;;26.23;11.97;;;;;;;-0.31;65.44;99514.65;120017;1153;104489;-71
2021/01/11 07:39:19;;;;;;;28.73;12.93;;;;;;;-0.29;65.39;99521.59;120028;1151;104437;-70
2021/01/11 07:42:00;;;;;;;25.53;10.50;;;;;;;-0.30;64.91;99515.48;120074;1151;104419;-68
2021/01/11 07:44:34;;;;;;;26.93;11.73;;;;;;;-0.33;64.85;99521.66;120035;1151;104403;-70
2021/01/11 07:47:07;;;;;;;29.40;12.33;;;;;;;-0.31;65.05;99522.48;120046;1151;104449;-69
2021/01/11 07:49:37;;;;;;;30.93;13.70;;;;;;;-0.26;65.60;99517.16;120075;1151;104932;-70
2021/01/11 07:52:07;;;;;;;30.00;13.23;;;;;;;-0.18;65.43;99519.59;119992;1151;104449;-70
2021/01/11 07:54:36;;;;;;;28.85;12.25;;;;;;;-0.13;65.47;99522.13;120022;1151;104462;-69
2021/01/11 07:57:08;;;;;;;29.30;13.73;;;;;;;-0.16;65.36;99518.69;120080;1151;104355;-69
2021/01/11 07:59:36;;;;;;;30.00;12.73;;;;;;;-0.16;65.15;99526.53;120039;1153;104532;-69
2021/01/11 08:02:11;;;;;;;39.20;16.60;;;;;;;-0.10;65.47;99522.06;120034;1151;104522;-70
2021/01/11 08:04:41;;;;;;;35.00;15.60;;;;;;;-0.10;64.79;99520.30;120034;1152;104537;-69
2021/01/11 08:07:09;;;;;;;35.20;15.97;;;;;;;-0.06;65.18;99521.95;120056;1151;104426;-67
2021/01/11 08:09:39;;;;;;;32.97;13.97;;;;;;;-0.01;65.30;99522.72;120041;1153;104490;-71
2021/01/11 08:12:15;;;;;;;30.17;12.63;;;;;;;0.00;65.04;99520.98;120048;1152;104444;-70
2021/01/11 08:14:44;;;;;;;27.63;12.50;;;;;;;0.05;65.46;99523.48;120055;1153;104471;-70
2021/01/11 08:17:20;;;;;;;22.05;9.35;;;;;;;0.09;65.15;99525.13;120019;1151;104452;-70
2021/01/11 08:19:52;;;;;;;27.17;11.87;;;;;;;0.11;65.65;99532.04;120087;1153;104426;-71
2021/01/11 08:22:21;;;;;;;28.80;11.77;;;;;;;0.13;64.92;99522.40;120085;1151;104462;-71
2021/01/11 08:24:52;;;;;;;27.10;11.53;;;;;;;0.17;65.03;99531.06;120089;1153;104435;-71
2021/01/11 08:27:30;;;;;;;25.57;9.47;;;;;;;0.14;64.92;99531.97;120053;1151;104492;-70
2021/01/11 08:30:11;;;;;;;25.83;10.20;;;;;;;0.03;65.39;99531.34;119995;1152;104385;-71
2021/01/11 08:32:39;;;;;;;24.47;10.00;;;;;;;-0.03;65.12;99536.73;120035;1151;104353;-71
2021/01/11 08:35:16;;;;;;;24.90;10.37;;;;;;;-0.11;64.88;99534.27;121233;1151;104412;-70
2021/01/11 08:37:44;;;;;;;23.83;9.30;;;;;;;-0.23;64.97;99543.23;119822;1151;101908;-66
2021/01/11 08:40:20;;;;;;;23.73;9.93;;;;;;;-0.39;65.00;99542.69;119852;1151;104639;-68
2021/01/11 08:42:48;;;;;;;25.03;10.57;;;;;;;-0.49;65.18;99541.15;119900;1151;104451;-71
2021/01/11 08:45:34;;;;;;;27.30;10.70;;;;;;;-0.50;64.50;99549.88;120017;1151;104417;-70
2021/01/11 08:48:14;;;;;;;25.03;10.50;;;;;;;-0.51;65.18;99540.31;119994;1151;104456;-71
2021/01/11 08:50:51;;;;;;;25.77;10.55;;;;;;;-0.47;64.83;99553.31;120000;1154;104461;-70
2021/01/11 08:53:18;;;;;;;22.60;9.35;;;;;;;-0.40;64.77;99554.04;119842;1152;104782;-65
2021/01/11 08:56:11;;;;;;;24.23;10.53;;;;;;;-0.35;64.93;99544.36;119720;1151;104452;-69
2021/01/11 08:58:50;;;;;;;25.00;10.50;;;;;;;-0.26;65.08;99550.30;119930;1152;104535;-71
2021/01/11 09:01:27;;;;;;;24.33;10.50;;;;;;;-0.17;65.31;99552.70;119958;1153;104385;-70
2021/01/11 09:04:02;;;;;;;23.53;10.13;;;;;;;-0.14;65.22;99554.40;119996;1151;104393;-70
2021/01/11 09:06:35;;;;;;;26.23;10.97;;;;;;;-0.06;65.23;99552.49;119945;1153;104399;-70
2021/01/11 09:09:06;;;;;;;28.07;10.93;;;;;;;0.00;64.95;99552.36;121008;1151;104478;-69
2021/01/11 09:11:35;;;;;;;25.77;10.67;;;;;;;0.06;65.43;99548.74;119989;1153;104436;-71
2021/01/11 09:14:16;;;;;;;26.07;11.13;;;;;;;0.11;65.16;99549.50;119942;1153;104461;-69
2021/01/11 09:16:48;;;;;;;30.03;12.33;;;;;;;0.16;64.86;99546.77;119979;1153;104561;-69
2021/01/11 09:19:19;;;;;;;29.97;12.00;;;;;;;0.21;64.94;99548.38;119929;1153;104566;-69
2021/01/11 09:22:14;;;;;;;24.73;10.10;;;;;;;0.27;65.49;99547.40;119930;1152;104371;-66
2021/01/11 09:24:44;;;;;;;27.50;10.80;;;;;;;0.32;65.30;99545.55;119979;1153;104380;-69
2021/01/11 09:27:11;;;;;;;21.73;9.10;;;;;;;0.29;64.71;99543.84;120028;1152;104429;-68
2021/01/11 09:29:40;;;;;;;21.50;8.40;;;;;;;0.26;64.65;99543.91;120072;1151;104846;-69
2021/01/11 09:32:08;;;;;;;21.17;8.70;;;;;;;0.25;65.14;99536.95;119988;1153;104402;-69
2021/01/11 09:34:37;;;;;;;19.20;7.87;;;;;;;0.28;65.27;99533.42;119954;1154;104450;-69
2021/01/11 09:37:04;;;;;;;18.87;7.80;;;;;;;0.24;64.97;99531.77;120041;1153;104466;-68
2021/01/11 09:39:31;;;;;;;20.97;8.60;;;;;;;0.18;64.95;99534.52;119979;1153;104409;-69
2021/01/11 09:41:58;;;;;;;22.20;9.30;;;;;;;0.17;65.32;99538.91;120036;1153;104492;-69
2021/01/11 09:44:26;;;;;;;20.07;7.83;;;;;;;0.18;65.03;99537.14;120027;1153;104605;-70
2021/01/11 09:46:57;;;;;;;21.73;8.90;;;;;;;0.20;64.58;99535.35;119909;1153;104457;-70
2021/01/11 09:49:25;;;;;;;23.85;9.50;;;;;;;0.24;64.84;99540.47;119976;1152;104454;-68
2021/01/11 09:51:54;;;;;;;21.47;8.83;;;;;;;0.29;65.05;99533.38;120008;1151;104370;-67
2021/01/11 09:54:22;;;;;;;20.53;8.87;;;;;;;0.35;64.92;99532.39;120020;1151;104457;-68
2021/01/11 09:56:49;;;;;;;21.40;9.47;;;;;;;0.42;64.94;99525.24;119918;1151;104704;-69
2021/01/11 09:59:17;;;;;;;25.90;10.40;;;;;;;0.43;65.20;99530.42;119986;1151;104401;-70
2021/01/11 10:01:49;;;;;;;21.43;9.20;;;;;;;0.49;64.96;99531.18;119976;1151;104459;-70
2021/01/11 10:04:20;;;;;;;24.85;9.75;;;;;;;0.53;64.77;99522.36;119987;1151;104453;-69
2021/01/11 10:06:46;;;;;;;24.73;10.00;;;;;;;0.57;64.93;99524.89;119997;1153;104426;-71
2021/01/11 10:09:17;;;;;;;25.83;10.57;;;;;;;0.63;65.24;99520.37;120035;1153;104465;-70
2021/01/11 10:11:49;;;;;;;28.43;11.27;;;;;;;0.66;65.32;99515.06;120019;1153;104436;-70
2021/01/11 10:14:18;;;;;;;26.67;11.87;;;;;;;0.69;64.82;99515.86;119908;1153;104429;-64
2021/01/11 10:16:46;;;;;;;24.67;10.47;;;;;;;0.71;65.08;99516.69;119997;1151;104576;-70
2021/01/11 10:19:17;;;;;;;22.77;9.77;;;;;;;0.69;64.66;99517.61;120017;1152;104359;-69
2021/01/11 10:21:45;;;;;;;26.37;10.70;;;;;;;0.68;64.82;99521.13;120075;1151;105119;-69
2021/01/11 10:24:16;;;;;;;32.43;13.33;;;;;;;0.71;64.97;99514.06;119963;1153;104471;-69
2021/01/11 10:26:45;;;;;;;25.00;10.47;;;;;;;0.74;64.87;99510.50;120002;1151;104379;-69
2021/01/11 10:29:15;;;;;;;23.83;9.67;;;;;;;0.76;64.83;99497.38;119998;1152;104386;-69
2021/01/11 10:31:44;;;;;;;25.50;10.23;;;;;;;0.79;64.94;99503.39;119968;1151;104458;-69
2021/01/11 10:34:13;;;;;;;31.50;12.77;;;;;;;0.82;65.17;99500.70;120039;1151;104543;-69
2021/01/11 10:36:45;;;;;;;26.00;10.23;;;;;;;0.86;64.56;99498.84;120002;1151;104382;-68
2021/01/11 10:39:18;;;;;;;24.93;8.40;;;;;;;0.90;65.22;99503.11;120057;1151;104457;-67
2021/01/11 10:41:56;;;;;;;20.57;7.87;;;;;;;0.94;65.11;99485.56;120055;1151;104355;-69
2021/01/11 10:44:25;;;;;;;21.17;8.20;;;;;;;0.98;65.25;99488.05;120027;1153;104385;-68
2021/01/11 10:47:00;;;;;;;21.17;6.93;;;;;;;1.01;64.92;99490.59;119974;1151;104577;-69
2021/01/11 10:49:30;;;;;;;19.17;7.73;;;;;;;1.05;65.06;99491.36;120006;1154;104381;-69
2021/01/11 10:51:58;;;;;;;19.13;7.67;;;;;;;1.09;64.85;99492.99;119994;1153;104429;-69
2021/01/11 10:54:27;;;;;;;22.50;8.03;;;;;;;1.11;64.86;99492.97;119999;1151;104825;-69
2021/01/11 10:56:55;;;;;;;19.10;8.03;;;;;;;1.11;65.09;99485.95;119979;1151;104458;-69
2021/01/11 10:59:23;;;;;;;15.67;6.23;;;;;;;1.07;64.32;99483.47;120016;1151;104461;-69
2021/01/11 11:01:52;;;;;;;17.23;6.20;;;;;;;0.79;64.38;99494.69;119972;1151;104380;-69
2021/01/11 11:04:22;;;;;;;14.83;5.93;;;;;;;0.60;64.51;99489.91;119973;1151;104389;-69
2021/01/11 11:06:56;;;;;;;16.53;6.50;;;;;;;0.61;64.60;99481.16;120007;1151;104502;-69
2021/01/11 11:09:23;;;;;;;14.33;5.60;;;;;;;0.59;64.51;99478.59;119931;1151;104541;-69
2021/01/11 11:11:52;;;;;;;16.27;6.37;;;;;;;0.63;64.76;99481.09;120003;1149;104381;-69
2021/01/11 11:14:19;;;;;;;17.07;6.50;;;;;;;0.68;64.87;99474.87;119980;1150;104468;-69
2021/01/11 11:16:50;;;;;;;15.07;5.47;;;;;;;0.76;64.48;99468.58;119998;1151;104359;-69
2021/01/11 11:19:17;;;;;;;14.73;5.77;;;;;;;0.82;64.52;99465.77;119964;1151;104381;-70
2021/01/11 11:21:48;;;;;;;17.70;6.10;;;;;;;0.87;65.01;99459.53;119978;1151;104519;-70